Klamath Falls, OR

12:33 AM PDT on August 21, 2014 (GMT -0700)
Klamath Falls City Schools | Change Station
CLOSE
Current Station
Personal Weather Station
Location: Klamath Falls, OR
Elevation: 4104 ft
Nearby Weather Stations

Elev 4104 ft 42.22 °N, 121.75 °W | Updated 2 seconds ago

Clear
Clear
55.0 °F
Feels Like 55.0 °F
N
0.0
Wind Variable Wind from NE
Gusts 0.0 mph

Today
High -- | Low -- °F
--% Chance of Precip.
Yesterday
High -- | Low -- °F
Precip. -- in
6:21 AM 7:58 PM
Waning Crescent, 16% visible
Pressure 29.93 in
Visibility 10.0 miles
Clouds Clear
Dew Point 49 °F
Humidity 81%
Rainfall 0.00 in
Snow Depth Not available.
UV 0 out of 12
Pollen 5.30 out of 12
Air Quality Not available.
Flu Activity Not available.
METAR KLMT 210653Z AUTO 29003KT 10SM CLR 14/09 A3004 RMK AO2 SLP135 T01390089

More Conditions Fewer Conditions

Pressure 29.93 in
Visibility 10.0 miles
Clouds Clear
Dew Point 49 °F
Humidity 81%
Rainfall 0.00 in
Snow Depth Not available.
UV 0 out of 12
Pollen 5.30 out of 12
Air Quality Not available.
Flu Activity Not available.
METAR KLMT 210653Z AUTO 29003KT 10SM CLR 14/09 A3004 RMK AO2 SLP135 T01390089

More Conditions Fewer Conditions

10-Day Weather Forecast

Almanac

Astronomy

Aug. 21, 2014 Rise Set
Actual Time 6:21 AM PDT 7:58 PM PDT
Civil Twilight 5:51 AM PDT 8:28 PM PDT
Nautical Twilight 5:15 AM PDT 9:04 PM PDT
Astronomical Twilight 4:36 AM PDT 9:42 PM PDT
Moon 2:54 AM PDT 5:32 PM PDT
Length of Visible Light 14h 36m
Length of Day
13h 37m
Tomorrow will be 2m 38s shorter.
Waning Crescent, 16% of the Moon is Illuminated
Today
Waning Crescent
Aug 25
New
Sep 2
First Quarter
Sep 8
Full
Sep 15
Last Quarter

Today's Extremes

State Highs State Lows

Community

WunderPhotos

Upload Photos

1,745,858 photos uploaded!

Nearby

Snow Depth

Station Depth Elevation
Strawberry 0 in 5760 ft
Fourmile Lake 1 in 6000 ft
Cold Springs Camp 0 in 6100 ft
Fish Lake 0 in 4665 ft
Sevenmile Marsh 0 in 6200 ft

Earthquake Activity

City Distance Mag. Time & Date
No recent earthquake activity has been reported nearby.
Minimum magnitude displayed is 2.5.

Coastal Water Temperatures

Place Temperature
No Stations Reporting

Nearby Weather Stations